sensor_id;sensor_type;location;lat;lon;timestamp;pressure;altitude;pressure_sealevel;temperature;humidity
75420;BME280;63998;52.488;13.428;2023-05-10T00:00:54;100747.63;;;15.09;46.41
75420;BME280;63998;52.488;13.428;2023-05-10T00:03:20;100745.94;;;15.08;46.73
75420;BME280;63998;52.488;13.428;2023-05-10T00:05:45;100745.19;;;15.00;46.46
75420;BME280;63998;52.488;13.428;2023-05-10T00:08:10;100737.31;;;15.01;47.20
75420;BME280;63998;52.488;13.428;2023-05-10T00:10:36;100734.84;;;14.94;46.82
75420;BME280;63998;52.488;13.428;2023-05-10T00:13:02;100741.88;;;14.89;46.81
75420;BME280;63998;52.488;13.428;2023-05-10T00:15:27;100733.09;;;14.93;48.52
75420;BME280;63998;52.488;13.428;2023-05-10T00:17:53;100738.38;;;14.90;47.94
75420;BME280;63998;52.488;13.428;2023-05-10T00:20:18;100731.44;;;14.86;46.78
75420;BME280;63998;52.488;13.428;2023-05-10T00:22:44;100729.66;;;14.91;47.75
75420;BME280;63998;52.488;13.428;2023-05-10T00:25:09;100728.81;;;14.89;47.26
75420;BME280;63998;52.488;13.428;2023-05-10T00:27:35;100726.31;;;14.81;46.24
75420;BME280;63998;52.488;13.428;2023-05-10T00:30:01;100723.94;;;14.66;46.54
75420;BME280;63998;52.488;13.428;2023-05-10T00:32:26;100714.34;;;14.66;47.46
75420;BME280;63998;52.488;13.428;2023-05-10T00:34:51;100712.78;;;14.53;46.04
75420;BME280;63998;52.488;13.428;2023-05-10T00:39:52;100709.69;;;14.24;46.89
75420;BME280;63998;52.488;13.428;2023-05-10T00:42:17;100712.44;;;14.13;46.84
75420;BME280;63998;52.488;13.428;2023-05-10T00:44:42;100712.59;;;14.02;47.21
75420;BME280;63998;52.488;13.428;2023-05-10T00:47:08;100706.44;;;14.07;47.88
75420;BME280;63998;52.488;13.428;2023-05-10T00:49:34;100706.47;;;14.03;47.47
75420;BME280;63998;52.488;13.428;2023-05-10T00:52:00;100705.69;;;13.97;47.82
75420;BME280;63998;52.488;13.428;2023-05-10T00:54:27;100713.56;;;13.95;47.54
75420;BME280;63998;52.488;13.428;2023-05-10T00:56:52;100697.09;;;13.87;47.80
75420;BME280;63998;52.488;13.428;2023-05-10T00:59:18;100700.53;;;13.92;47.99
75420;BME280;63998;52.488;13.428;2023-05-10T01:01:44;100698.78;;;13.93;48.51
75420;BME280;63998;52.488;13.428;2023-05-10T01:04:11;100700.56;;;13.89;48.26
75420;BME280;63998;52.488;13.428;2023-05-10T01:06:38;100688.53;;;13.78;48.12
75420;BME280;63998;52.488;13.428;2023-05-10T01:09:04;100684.09;;;13.84;49.52
75420;BME280;63998;52.488;13.428;2023-05-10T01:11:30;100685.91;;;13.76;49.31
75420;BME280;63998;52.488;13.428;2023-05-10T01:13:56;100685.03;;;13.79;49.24
75420;BME280;63998;52.488;13.428;2023-05-10T01:16:23;100686.03;;;13.67;48.73
75420;BME280;63998;52.488;13.428;2023-05-10T01:18:51;100691.41;;;13.55;49.07
75420;BME280;63998;52.488;13.428;2023-05-10T01:35:26;100675.84;;;13.46;50.37
75420;BME280;63998;52.488;13.428;2023-05-10T01:38:07;100678.47;;;13.46;50.59
75420;BME280;63998;52.488;13.428;2023-05-10T01:40:39;100674.94;;;13.48;50.57
75420;BME280;63998;52.488;13.428;2023-05-10T01:43:11;100674.16;;;13.39;50.72
75420;BME280;63998;52.488;13.428;2023-05-10T01:45:52;100670.66;;;13.43;50.99
75420;BME280;63998;52.488;13.428;2023-05-10T01:48:20;100669.06;;;13.28;49.47
75420;BME280;63998;52.488;13.428;2023-05-10T01:50:48;100671.69;;;13.28;50.67
75420;BME280;63998;52.488;13.428;2023-05-10T01:53:18;100665.66;;;13.21;50.82
75420;BME280;63998;52.488;13.428;2023-05-10T01:55:48;100665.69;;;13.18;50.58
75420;BME280;63998;52.488;13.428;2023-05-10T01:58:18;100669.09;;;13.23;51.22
75420;BME280;63998;52.488;13.428;2023-05-10T02:00:45;100670.78;;;13.30;51.89
75420;BME280;63998;52.488;13.428;2023-05-10T02:03:11;100669.97;;;13.25;51.85
75420;BME280;63998;52.488;13.428;2023-05-10T02:05:38;100662.13;;;13.25;51.12
75420;BME280;63998;52.488;13.428;2023-05-10T02:08:06;100662.22;;;13.19;50.83
75420;BME280;63998;52.488;13.428;2023-05-10T02:10:33;100668.28;;;13.21;51.87
75420;BME280;63998;52.488;13.428;2023-05-10T02:12:59;100667.44;;;13.16;50.66
75420;BME280;63998;52.488;13.428;2023-05-10T02:15:26;100657.00;;;13.13;51.46
75420;BME280;63998;52.488;13.428;2023-05-10T02:17:54;100667.50;;;13.07;51.69
75420;BME280;63998;52.488;13.428;2023-05-10T02:20:20;100656.19;;;13.10;51.69
75420;BME280;63998;52.488;13.428;2023-05-10T02:22:49;100660.59;;;13.03;52.32
75420;BME280;63998;52.488;13.428;2023-05-10T02:25:17;100658.94;;;12.96;51.99
75420;BME280;63998;52.488;13.428;2023-05-10T02:27:44;100656.34;;;12.93;51.73
75420;BME280;63998;52.488;13.428;2023-05-10T02:30:12;100650.34;;;12.85;51.90
75420;BME280;63998;52.488;13.428;2023-05-10T02:32:38;100651.22;;;12.84;52.01
75420;BME280;63998;52.488;13.428;2023-05-10T02:35:05;100646.91;;;12.77;51.70
75420;BME280;63998;52.488;13.428;2023-05-10T02:37:31;100657.34;;;12.77;52.55
75420;BME280;63998;52.488;13.428;2023-05-10T02:39:58;100650.47;;;12.67;52.50
75420;BME280;63998;52.488;13.428;2023-05-10T02:42:26;100652.28;;;12.58;51.53
75420;BME280;63998;52.488;13.428;2023-05-10T02:44:54;100656.69;;;12.50;52.82
75420;BME280;63998;52.488;13.428;2023-05-10T02:47:21;100650.59;;;12.51;52.72
75420;BME280;63998;52.488;13.428;2023-05-10T02:49:47;100649.69;;;12.55;53.12
75420;BME280;63998;52.488;13.428;2023-05-10T02:52:16;100659.19;;;12.63;53.26
75420;BME280;63998;52.488;13.428;2023-05-10T02:54:46;100653.97;;;12.66;52.34
75420;BME280;63998;52.488;13.428;2023-05-10T02:57:16;100655.66;;;12.73;52.56
75420;BME280;63998;52.488;13.428;2023-05-10T02:59:45;100655.69;;;12.65;52.74
75420;BME280;63998;52.488;13.428;2023-05-10T03:02:14;100653.19;;;12.53;52.31
75420;BME280;63998;52.488;13.428;2023-05-10T03:04:39;100662.75;;;12.52;52.45
75420;BME280;63998;52.488;13.428;2023-05-10T03:07:04;100657.53;;;12.55;53.70
75420;BME280;63998;52.488;13.428;2023-05-10T03:09:31;100659.34;;;12.44;52.67
75420;BME280;63998;52.488;13.428;2023-05-10T03:17:45;100649.72;;;12.51;53.50
75420;BME280;63998;52.488;13.428;2023-05-10T03:20:20;100652.34;;;12.49;53.31
75420;BME280;63998;52.488;13.428;2023-05-10T03:22:51;100648.94;;;12.41;54.24
75420;BME280;63998;52.488;13.428;2023-05-10T03:25:19;100649.81;;;12.39;53.15
75420;BME280;63998;52.488;13.428;2023-05-10T03:27:45;100652.41;;;12.40;53.14
75420;BME280;63998;52.488;13.428;2023-05-10T03:30:12;100654.22;;;12.29;52.26
75420;BME280;63998;52.488;13.428;2023-05-10T03:32:38;100652.56;;;12.22;53.81
75420;BME280;63998;52.488;13.428;2023-05-10T03:35:10;100650.78;;;12.24;53.67
75420;BME280;63998;52.488;13.428;2023-05-10T03:37:37;100646.44;;;12.24;54.59
75420;BME280;63998;52.488;13.428;2023-05-10T03:40:02;100644.72;;;12.23;54.10
75420;BME280;63998;52.488;13.428;2023-05-10T03:42:28;100646.44;;;12.24;54.05
75420;BME280;63998;52.488;13.428;2023-05-10T03:44:53;100650.75;;;12.30;54.70
75420;BME280;63998;52.488;13.428;2023-05-10T03:47:19;100643.78;;;12.34;54.63
75420;BME280;63998;52.488;13.428;2023-05-10T03:49:44;100643.88;;;12.23;53.26
75420;BME280;63998;52.488;13.428;2023-05-10T03:52:10;100642.94;;;12.26;54.40
75420;BME280;63998;52.488;13.428;2023-05-10T03:54:35;100646.44;;;12.24;53.74
75420;BME280;63998;52.488;13.428;2023-05-10T03:57:01;100634.28;;;12.27;54.33
75420;BME280;63998;52.488;13.428;2023-05-10T03:59:28;100647.28;;;12.28;55.16
75420;BME280;63998;52.488;13.428;2023-05-10T04:01:53;100645.53;;;12.33;54.39
75420;BME280;63998;52.488;13.428;2023-05-10T04:04:18;100641.97;;;12.43;55.16
75420;BME280;63998;52.488;13.428;2023-05-10T04:06:45;100644.56;;;12.48;54.34
75420;BME280;63998;52.488;13.428;2023-05-10T04:09:11;100645.38;;;12.51;54.32
75420;BME280;63998;52.488;13.428;2023-05-10T04:11:36;100650.56;;;12.54;54.53
75420;BME280;63998;52.488;13.428;2023-05-10T04:14:02;100643.59;;;12.59;53.99
75420;BME280;63998;52.488;13.428;2023-05-10T04:16:27;100630.50;;;12.64;53.94
75420;BME280;63998;52.488;13.428;2023-05-10T04:18:52;100645.28;;;12.64;53.94
75420;BME280;63998;52.488;13.428;2023-05-10T04:21:18;100640.16;;;12.54;52.78
75420;BME280;63998;52.488;13.428;2023-05-10T04:23:43;100641.00;;;12.56;53.35
75420;BME280;63998;52.488;13.428;2023-05-10T04:26:08;100634.88;;;12.64;53.31
75420;BME280;63998;52.488;13.428;2023-05-10T04:28:34;100640.13;;;12.57;52.47
75420;BME280;63998;52.488;13.428;2023-05-10T04:31:04;100636.56;;;12.68;53.22
75420;BME280;63998;52.488;13.428;2023-05-10T04:33:29;100631.34;;;12.72;53.41
75420;BME280;63998;52.488;13.428;2023-05-10T04:35:55;100637.25;;;12.89;52.48
75420;BME280;63998;52.488;13.428;2023-05-10T04:38:20;100634.50;;;13.06;50.93
75420;BME280;63998;52.488;13.428;2023-05-10T04:40:45;100629.19;;;13.15;50.38
75420;BME280;63998;52.488;13.428;2023-05-10T04:43:10;100631.66;;;13.30;49.86
75420;BME280;63998;52.488;13.428;2023-05-10T04:45:36;100624.69;;;13.31;49.88
75420;BME280;63998;52.488;13.428;2023-05-10T04:48:01;100630.91;;;13.19;49.10
75420;BME280;63998;52.488;13.428;2023-05-10T04:50:26;100622.38;;;12.99;49.21
75420;BME280;63998;52.488;13.428;2023-05-10T04:52:52;100621.63;;;12.88;50.06
75420;BME280;63998;52.488;13.428;2023-05-10T04:55:17;100619.84;;;12.91;50.39
75420;BME280;63998;52.488;13.428;2023-05-10T04:57:42;100618.16;;;12.86;49.69
75420;BME280;63998;52.488;13.428;2023-05-10T05:00:08;100621.63;;;12.86;50.25
75420;BME280;63998;52.488;13.428;2023-05-10T05:02:34;100622.47;;;12.91;50.45
75420;BME280;63998;52.488;13.428;2023-05-10T05:04:59;100619.84;;;12.93;50.01
75420;BME280;63998;52.488;13.428;2023-05-10T05:07:25;100616.38;;;12.92;49.65
75420;BME280;63998;52.488;13.428;2023-05-10T05:09:50;100620.69;;;12.98;50.38
75420;BME280;63998;52.488;13.428;2023-05-10T05:12:15;100622.38;;;12.99;49.95
75420;BME280;63998;52.488;13.428;2023-05-10T05:14:41;100618.00;;;13.03;49.87
75420;BME280;63998;52.488;13.428;2023-05-10T05:17:06;100619.72;;;13.04;49.13
75420;BME280;63998;52.488;13.428;2023-05-10T05:19:32;100614.41;;;13.16;49.95
75420;BME280;63998;52.488;13.428;2023-05-10T05:21:57;100618.81;;;13.09;49.12
75420;BME280;63998;52.488;13.428;2023-05-10T05:24:23;100611.81;;;13.14;49.24
75420;BME280;63998;52.488;13.428;2023-05-10T05:26:48;100614.38;;;13.20;49.89
75420;BME280;63998;52.488;13.428;2023-05-10T05:29:13;100616.06;;;13.23;49.16
75420;BME280;63998;52.488;13.428;2023-05-10T05:31:39;100618.63;;;13.30;48.81
75420;BME280;63998;52.488;13.428;2023-05-10T05:34:04;100613.28;;;13.40;48.74
75420;BME280;63998;52.488;13.428;2023-05-10T05:36:29;100609.75;;;13.45;49.32
75420;BME280;63998;52.488;13.428;2023-05-10T05:38:56;100609.63;;;13.56;48.77
75420;BME280;63998;52.488;13.428;2023-05-10T05:41:22;100618.28;;;13.58;48.90
75420;BME280;63998;52.488;13.428;2023-05-10T05:43:48;100607.75;;;13.64;49.27
75420;BME280;63998;52.488;13.428;2023-05-10T05:46:14;100609.38;;;13.74;49.16
75420;BME280;63998;52.488;13.428;2023-05-10T05:48:39;100608.41;;;13.81;48.73
75420;BME280;63998;52.488;13.428;2023-05-10T05:51:04;100605.72;;;13.87;47.97
75420;BME280;63998;52.488;13.428;2023-05-10T05:53:30;100596.94;;;13.94;48.46
75420;BME280;63998;52.488;13.428;2023-05-10T05:55:56;100596.06;;;13.94;47.68
75420;BME280;63998;52.488;13.428;2023-05-10T05:58:23;100598.59;;;13.98;47.72
75420;BME280;63998;52.488;13.428;2023-05-10T06:00:49;100592.63;;;13.89;47.21
75420;BME280;63998;52.488;13.428;2023-05-10T06:03:15;100598.56;;;14.01;47.20
75420;BME280;63998;52.488;13.428;2023-05-10T06:05:40;100600.13;;;14.12;47.66
75420;BME280;63998;52.488;13.428;2023-05-10T06:08:06;100610.56;;;14.13;46.76
75420;BME280;63998;52.488;13.428;2023-05-10T06:10:31;100610.53;;;14.15;46.81
75420;BME280;63998;52.488;13.428;2023-05-10T06:12:56;100620.97;;;14.18;46.70
75420;BME280;63998;52.488;13.428;2023-05-10T06:15:22;100610.59;;;14.12;46.86
75420;BME280;63998;52.488;13.428;2023-05-10T06:17:47;100603.56;;;14.17;46.67
75420;BME280;63998;52.488;13.428;2023-05-10T06:20:14;100613.81;;;14.29;47.18
75420;BME280;63998;52.488;13.428;2023-05-10T06:22:40;100608.41;;;14.44;46.88
75420;BME280;63998;52.488;13.428;2023-05-10T06:25:06;100608.28;;;14.50;46.93
75420;BME280;63998;52.488;13.428;2023-05-10T06:27:31;100599.50;;;14.54;46.84
75420;BME280;63998;52.488;13.428;2023-05-10T06:29:57;100603.00;;;14.53;46.27
75420;BME280;63998;52.488;13.428;2023-05-10T06:32:22;100603.75;;;14.60;46.50
75420;BME280;63998;52.488;13.428;2023-05-10T06:34:47;100599.19;;;14.72;46.96
75420;BME280;63998;52.488;13.428;2023-05-10T06:37:13;100606.00;;;14.83;46.37
75420;BME280;63998;52.488;13.428;2023-05-10T06:39:38;100598.81;;;14.94;46.57
75420;BME280;63998;52.488;13.428;2023-05-10T06:42:03;100597.09;;;14.93;46.21
75420;BME280;63998;52.488;13.428;2023-05-10T06:44:29;100600.47;;;14.98;45.95
75420;BME280;63998;52.488;13.428;2023-05-10T06:46:55;100605.59;;;15.04;45.75
75420;BME280;63998;52.488;13.428;2023-05-10T06:49:21;100594.03;;;15.17;45.56
75420;BME280;63998;52.488;13.428;2023-05-10T06:51:46;100604.44;;;15.20;45.61
75420;BME280;63998;52.488;13.428;2023-05-10T06:54:11;100599.94;;;15.27;45.73
75420;BME280;63998;52.488;13.428;2023-05-10T06:56:36;100596.41;;;15.29;45.34
75420;BME280;63998;52.488;13.428;2023-05-10T06:59:02;100604.13;;;15.34;45.08
75420;BME280;63998;52.488;13.428;2023-05-10T07:01:28;100589.31;;;15.34;45.35
75420;BME280;63998;52.488;13.428;2023-05-10T07:03:53;100597.88;;;15.42;45.03
75420;BME280;63998;52.488;13.428;2023-05-10T07:06:18;100596.09;;;15.44;45.03
75420;BME280;63998;52.488;13.428;2023-05-10T07:08:44;100599.72;;;15.37;44.89
75420;BME280;63998;52.488;13.428;2023-05-10T07:11:09;100593.41;;;15.48;44.94
75420;BME280;63998;52.488;13.428;2023-05-10T07:13:37;100595.00;;;15.58;44.66
75420;BME280;63998;52.488;13.428;2023-05-10T07:16:06;100591.16;;;15.72;44.86
75420;BME280;63998;52.488;13.428;2023-05-10T07:18:32;100595.41;;;15.78;44.66
75420;BME280;63998;52.488;13.428;2023-05-10T07:20:58;100597.97;;;15.81;44.07
75420;BME280;63998;52.488;13.428;2023-05-10T07:23:23;100582.34;;;15.76;43.95
75420;BME280;63998;52.488;13.428;2023-05-10T07:25:49;100588.25;;;15.86;43.97
75420;BME280;63998;52.488;13.428;2023-05-10T07:28:17;100589.88;;;15.92;43.79
75420;BME280;63998;52.488;13.428;2023-05-10T07:30:43;100585.50;;;15.92;43.59
75420;BME280;63998;52.488;13.428;2023-05-10T07:33:09;100600.13;;;16.02;44.02
75420;BME280;63998;52.488;13.428;2023-05-10T07:35:35;100584.09;;;16.14;43.69
75420;BME280;63998;52.488;13.428;2023-05-10T07:38:01;100600.34;;;16.30;44.05
75420;BME280;63998;52.488;13.428;2023-05-10T07:40:26;100597.28;;;16.47;44.50
75420;BME280;63998;52.488;13.428;2023-05-10T07:42:52;100586.47;;;16.62;44.12
75420;BME280;63998;52.488;13.428;2023-05-10T07:45:17;100583.69;;;16.68;43.09
75420;BME280;63998;52.488;13.428;2023-05-10T07:47:43;100585.88;;;16.85;43.73
75420;BME280;63998;52.488;13.428;2023-05-10T07:50:08;100580.34;;;16.96;42.23
75420;BME280;63998;52.488;13.428;2023-05-10T07:52:34;100581.75;;;17.07;43.21
75420;BME280;63998;52.488;13.428;2023-05-10T07:54:59;100579.66;;;17.20;42.93
75420;BME280;63998;52.488;13.428;2023-05-10T07:57:24;100576.06;;;17.24;41.88
75420;BME280;63998;52.488;13.428;2023-05-10T07:59:50;100572.00;;;17.43;42.82
75420;BME280;63998;52.488;13.428;2023-05-10T08:02:15;100578.72;;;17.53;42.08
75420;BME280;63998;52.488;13.428;2023-05-10T08:04:40;100578.41;;;17.66;42.15
75420;BME280;63998;52.488;13.428;2023-05-10T08:07:06;100576.72;;;17.63;41.21
75420;BME280;63998;52.488;13.428;2023-05-10T08:09:31;100581.56;;;17.77;42.00
75420;BME280;63998;52.488;13.428;2023-05-10T08:11:57;100572.56;;;17.84;41.59
75420;BME280;63998;52.488;13.428;2023-05-10T08:14:23;100580.97;;;17.95;41.97
75420;BME280;63998;52.488;13.428;2023-05-10T08:16:49;100579.38;;;17.91;40.44
75420;BME280;63998;52.488;13.428;2023-05-10T08:19:14;100570.69;;;17.89;40.77
75420;BME280;63998;52.488;13.428;2023-05-10T08:21:44;100567.72;;;18.00;41.08
75420;BME280;63998;52.488;13.428;2023-05-10T08:24:09;100577.84;;;18.12;41.04
75420;BME280;63998;52.488;13.428;2023-05-10T08:26:34;100582.97;;;18.16;40.65
75420;BME280;63998;52.488;13.428;2023-05-10T08:29:00;100575.41;;;18.32;40.42
75420;BME280;63998;52.488;13.428;2023-05-10T08:31:25;100572.44;;;18.43;39.97
75420;BME280;63998;52.488;13.428;2023-05-10T08:33:50;100581.03;;;18.48;40.47
75420;BME280;63998;52.488;13.428;2023-05-10T08:36:17;100566.97;;;18.49;39.72
75420;BME280;63998;52.488;13.428;2023-05-10T08:38:50;100571.28;;;18.51;39.81
75420;BME280;63998;52.488;13.428;2023-05-10T08:41:19;100583.03;;;18.67;39.23
75420;BME280;63998;52.488;13.428;2023-05-10T08:43:46;100573.22;;;18.73;39.21
75420;BME280;63998;52.488;13.428;2023-05-10T08:46:17;100580.97;;;18.77;38.95
75420;BME280;63998;52.488;13.428;2023-05-10T08:48:44;100579.63;;;18.90;39.02
75420;BME280;63998;52.488;13.428;2023-05-10T08:51:13;100581.59;;;19.09;38.95
75420;BME280;63998;52.488;13.428;2023-05-10T08:53:39;100587.69;;;19.11;38.83
75420;BME280;63998;52.488;13.428;2023-05-10T08:56:05;100583.47;;;19.30;38.98
75420;BME280;63998;52.488;13.428;2023-05-10T08:58:30;100579.47;;;19.43;37.83
75420;BME280;63998;52.488;13.428;2023-05-10T09:00:56;100577.56;;;19.47;37.93
75420;BME280;63998;52.488;13.428;2023-05-10T09:03:22;100582.03;;;19.45;37.39
75420;BME280;63998;52.488;13.428;2023-05-10T09:05:49;100585.97;;;19.33;38.00
75420;BME280;63998;52.488;13.428;2023-05-10T09:08:15;100579.44;;;19.20;37.66
75420;BME280;63998;52.488;13.428;2023-05-10T09:10:42;100582.22;;;19.40;37.52
75420;BME280;63998;52.488;13.428;2023-05-10T09:13:10;100578.94;;;19.58;37.87
75420;BME280;63998;52.488;13.428;2023-05-10T09:15:36;100588.78;;;19.77;37.62
75420;BME280;63998;52.488;13.428;2023-05-10T09:18:01;100589.50;;;19.80;36.64
75420;BME280;63998;52.488;13.428;2023-05-10T09:20:27;100591.66;;;19.92;36.96
75420;BME280;63998;52.488;13.428;2023-05-10T09:22:53;100578.31;;;19.97;37.29
75420;BME280;63998;52.488;13.428;2023-05-10T09:25:19;100579.00;;;20.02;36.46
75420;BME280;63998;52.488;13.428;2023-05-10T09:27:46;100585.97;;;20.03;36.74
75420;BME280;63998;52.488;13.428;2023-05-10T09:30:25;100590.91;;;20.12;36.60
75420;BME280;63998;52.488;13.428;2023-05-10T09:32:51;100588.81;;;20.20;37.10
75420;BME280;63998;52.488;13.428;2023-05-10T09:35:18;100579.97;;;20.21;36.14
75420;BME280;63998;52.488;13.428;2023-05-10T09:37:49;100592.78;;;20.30;36.35
75420;BME280;63998;52.488;13.428;2023-05-10T09:40:19;100592.59;;;20.36;35.90
75420;BME280;63998;52.488;13.428;2023-05-10T09:43:08;100593.00;;;20.48;35.98
75420;BME280;63998;52.488;13.428;2023-05-10T09:45:34;100585.88;;;20.50;35.49
75420;BME280;63998;52.488;13.428;2023-05-10T09:48:01;100595.53;;;20.71;35.86
75420;BME280;63998;52.488;13.428;2023-05-10T09:50:28;100592.25;;;20.86;36.00
75420;BME280;63998;52.488;13.428;2023-05-10T09:52:56;100590.41;;;20.88;35.27
75420;BME280;63998;52.488;13.428;2023-05-10T09:55:41;100596.47;;;21.10;35.16
75420;BME280;63998;52.488;13.428;2023-05-10T09:58:09;100587.19;;;21.22;34.52
75420;BME280;63998;52.488;13.428;2023-05-10T10:00:40;100595.66;;;21.49;34.56
75420;BME280;63998;52.488;13.428;2023-05-10T10:03:07;100599.28;;;21.65;34.30
75420;BME280;63998;52.488;13.428;2023-05-10T10:05:40;100592.94;;;21.69;33.88
75420;BME280;63998;52.488;13.428;2023-05-10T10:08:06;100590.38;;;21.86;34.07
75420;BME280;63998;52.488;13.428;2023-05-10T10:10:33;100590.47;;;22.04;33.79
75420;BME280;63998;52.488;13.428;2023-05-10T10:12:59;100586.69;;;22.09;32.95
75420;BME280;63998;52.488;13.428;2023-05-10T10:15:24;100583.66;;;21.98;32.75
75420;BME280;63998;52.488;13.428;2023-05-10T10:17:51;100578.09;;;21.85;32.93
75420;BME280;63998;52.488;13.428;2023-05-10T10:20:18;100587.94;;;22.01;33.21
75420;BME280;63998;52.488;13.428;2023-05-10T10:22:43;100571.34;;;22.16;32.91
75420;BME280;63998;52.488;13.428;2023-05-10T10:25:11;100582.91;;;22.32;32.59
75420;BME280;63998;52.488;13.428;2023-05-10T10:30:45;100568.03;;;22.83;32.07
75420;BME280;63998;52.488;13.428;2023-05-10T10:35:45;100573.63;;;23.11;30.36
75420;BME280;63998;52.488;13.428;2023-05-10T10:38:12;100574.47;;;23.12;30.17
75420;BME280;63998;52.488;13.428;2023-05-10T10:40:38;100577.59;;;23.36;31.06
75420;BME280;63998;52.488;13.428;2023-05-10T10:43:36;100573.63;;;23.11;30.18
75420;BME280;63998;52.488;13.428;2023-05-10T10:46:19;100576.22;;;23.28;30.77
75420;BME280;63998;52.488;13.428;2023-05-10T10:49:08;100567.16;;;23.33;30.38
75420;BME280;63998;52.488;13.428;2023-05-10T10:51:40;100581.00;;;23.38;30.48
75420;BME280;63998;52.488;13.428;2023-05-10T10:54:11;100569.09;;;23.62;31.19
75420;BME280;63998;52.488;13.428;2023-05-10T10:56:37;100566.34;;;23.48;30.12
75420;BME280;63998;52.488;13.428;2023-05-10T10:59:02;100575.13;;;23.33;30.38
75420;BME280;63998;52.488;13.428;2023-05-10T11:01:33;100575.78;;;23.03;30.54
75420;BME280;63998;52.488;13.428;2023-05-10T11:06:31;100561.50;;;23.56;30.34
75420;BME280;63998;52.488;13.428;2023-05-10T11:08:57;100569.97;;;23.78;29.66
75420;BME280;63998;52.488;13.428;2023-05-10T11:11:22;100573.22;;;24.15;29.56
75420;BME280;63998;52.488;13.428;2023-05-10T11:13:48;100572.22;;;23.70;28.91
75420;BME280;63998;52.488;13.428;2023-05-10T11:19:02;100559.00;;;24.47;28.98
75420;BME280;63998;52.488;13.428;2023-05-10T11:21:30;100561.66;;;24.47;28.84
75420;BME280;63998;52.488;13.428;2023-05-10T11:23:57;100556.19;;;24.19;28.22
75420;BME280;63998;52.488;13.428;2023-05-10T11:26:24;100564.31;;;24.47;28.06
75420;BME280;63998;52.488;13.428;2023-05-10T11:28:52;100558.50;;;24.25;28.27
75420;BME280;63998;52.488;13.428;2023-05-10T11:31:18;100554.19;;;24.38;28.15
75420;BME280;63998;52.488;13.428;2023-05-10T11:33:45;100561.75;;;23.98;29.04
75420;BME280;63998;52.488;13.428;2023-05-10T11:36:12;100556.03;;;24.22;29.15
75420;BME280;63998;52.488;13.428;2023-05-10T11:38:37;100553.66;;;24.77;28.84
75420;BME280;63998;52.488;13.428;2023-05-10T11:41:02;100556.03;;;25.40;28.19
75420;BME280;63998;52.488;13.428;2023-05-10T11:43:28;100556.66;;;25.72;27.49
75420;BME280;63998;52.488;13.428;2023-05-10T11:45:55;100560.03;;;26.02;26.54
75420;BME280;63998;52.488;13.428;2023-05-10T11:48:21;100550.63;;;25.97;25.63
75420;BME280;63998;52.488;13.428;2023-05-10T11:50:49;100537.88;;;26.56;26.23
75420;BME280;63998;52.488;13.428;2023-05-10T11:53:14;100539.63;;;26.82;24.70
75420;BME280;63998;52.488;13.428;2023-05-10T11:55:40;100554.63;;;26.31;25.29
75420;BME280;63998;52.488;13.428;2023-05-10T11:58:05;100557.50;;;26.13;26.20
75420;BME280;63998;52.488;13.428;2023-05-10T12:00:31;100557.00;;;26.48;25.78
75420;BME280;63998;52.488;13.428;2023-05-10T12:02:56;100568.34;;;26.64;24.62
75420;BME280;63998;52.488;13.428;2023-05-10T12:05:22;100549.13;;;26.99;25.57
75420;BME280;63998;52.488;13.428;2023-05-10T12:07:48;100550.50;;;26.92;24.83
75420;BME280;63998;52.488;13.428;2023-05-10T12:10:13;100549.81;;;26.75;24.50
75420;BME280;63998;52.488;13.428;2023-05-10T12:12:44;100560.34;;;27.04;24.41
75420;BME280;63998;52.488;13.428;2023-05-10T12:15:12;100560.22;;;26.53;24.36
75420;BME280;63998;52.488;13.428;2023-05-10T12:17:38;100576.41;;;25.96;24.97
75420;BME280;63998;52.488;13.428;2023-05-10T12:22:52;100554.22;;;25.69;25.40
75420;BME280;63998;52.488;13.428;2023-05-10T12:25:22;100572.06;;;25.53;26.10
75420;BME280;63998;52.488;13.428;2023-05-10T12:27:52;100564.88;;;25.69;26.57
75420;BME280;63998;52.488;13.428;2023-05-10T12:30:25;100563.31;;;26.20;26.24
75420;BME280;63998;52.488;13.428;2023-05-10T12:32:50;100559.97;;;26.31;26.42
75420;BME280;63998;52.488;13.428;2023-05-10T12:35:17;100572.81;;;25.83;25.91
75420;BME280;63998;52.488;13.428;2023-05-10T12:37:44;100568.97;;;26.01;26.16
75420;BME280;63998;52.488;13.428;2023-05-10T12:40:10;100574.38;;;25.45;26.72
75420;BME280;63998;52.488;13.428;2023-05-10T12:42:37;100572.28;;;25.21;27.02
75420;BME280;63998;52.488;13.428;2023-05-10T12:45:04;100573.22;;;25.63;27.44
75420;BME280;63998;52.488;13.428;2023-05-10T12:47:30;100573.91;;;26.07;26.12
75420;BME280;63998;52.488;13.428;2023-05-10T12:49:56;100578.00;;;26.40;26.21
75420;BME280;63998;52.488;13.428;2023-05-10T12:52:21;100561.56;;;26.86;25.69
75420;BME280;63998;52.488;13.428;2023-05-10T12:54:48;100565.88;;;27.26;25.25
75420;BME280;63998;52.488;13.428;2023-05-10T12:57:14;100575.03;;;27.22;23.98
75420;BME280;63998;52.488;13.428;2023-05-10T12:59:39;100562.66;;;27.34;24.79
75420;BME280;63998;52.488;13.428;2023-05-10T13:02:05;100573.97;;;27.63;24.51
75420;BME280;63998;52.488;13.428;2023-05-10T13:04:31;100571.31;;;27.37;23.61
75420;BME280;63998;52.488;13.428;2023-05-10T13:06:56;100562.25;;;27.14;23.91
75420;BME280;63998;52.488;13.428;2023-05-10T13:09:24;100557.13;;;27.24;24.03
75420;BME280;63998;52.488;13.428;2023-05-10T13:11:50;100570.22;;;27.52;23.49
75420;BME280;63998;52.488;13.428;2023-05-10T13:14:15;100563.19;;;27.51;23.07